createdAt,value
2023-03-05T00:01:33.615Z,27.63
2023-03-05T00:04:04.451Z,26.83
2023-03-05T00:06:33.224Z,34.33
2023-03-05T00:09:00.798Z,39.15
2023-03-05T00:11:30.432Z,39.03
2023-03-05T00:13:58.464Z,33.92
2023-03-05T00:16:28.892Z,30.27
2023-03-05T00:18:57.926Z,30.38
2023-03-05T00:21:29.160Z,30.50
2023-03-05T00:23:58.229Z,29.65
2023-03-05T00:26:27.646Z,29.48
2023-03-05T00:28:56.340Z,27.08
2023-03-05T00:31:30.652Z,26.25
2023-03-05T00:34:01.773Z,24.67
2023-03-05T00:36:30.041Z,25.70
2023-03-05T00:38:57.799Z,25.50
2023-03-05T00:41:25.366Z,24.40
2023-03-05T00:43:53.546Z,25.17
2023-03-05T00:46:20.999Z,25.45
2023-03-05T00:48:48.429Z,28.67
2023-03-05T00:51:16.092Z,34.83
2023-03-05T00:53:43.314Z,42.38
2023-03-05T00:56:11.273Z,38.30
2023-03-05T00:58:39.508Z,32.75
2023-03-05T01:01:07.100Z,34.35
2023-03-05T01:03:36.113Z,38.30
2023-03-05T01:06:12.247Z,36.78
2023-03-05T01:08:39.978Z,33.10
2023-03-05T01:11:07.839Z,31.52
2023-03-05T01:13:36.314Z,30.75
2023-03-05T01:16:04.767Z,28.05
2023-03-05T01:18:32.629Z,28.88
2023-03-05T01:20:59.972Z,28.08
2023-03-05T01:23:27.694Z,25.98
2023-03-05T01:25:59.230Z,26.05
2023-03-05T01:28:27.392Z,26.23
2023-03-05T01:30:54.607Z,25.52
2023-03-05T01:33:21.954Z,24.95
2023-03-05T01:35:50.417Z,27.52
2023-03-05T01:38:18.571Z,26.83
2023-03-05T01:40:46.480Z,25.55
2023-03-05T01:43:13.633Z,26.38
2023-03-05T01:46:16.976Z,24.27
2023-03-05T01:48:48.048Z,24.20
2023-03-05T01:51:16.956Z,24.20
2023-03-05T01:53:44.612Z,25.02
2023-03-05T01:56:11.976Z,26.27
2023-03-05T01:58:40.088Z,25.67
2023-03-05T02:01:07.488Z,25.58
2023-03-05T02:03:35.805Z,24.70
2023-03-05T02:06:04.252Z,24.35
2023-03-05T02:08:32.135Z,23.48
2023-03-05T02:11:00.876Z,23.90
2023-03-05T02:13:34.468Z,25.00
2023-03-05T02:16:02.461Z,22.65
2023-03-05T02:18:29.949Z,23.38
2023-03-05T02:20:57.145Z,23.77
2023-03-05T02:23:30.332Z,23.42
2023-03-05T02:25:57.780Z,23.35
2023-03-05T02:28:43.427Z,23.10
2023-03-05T02:31:16.146Z,23.30
2023-03-05T02:33:44.061Z,23.13
2023-03-05T02:36:12.423Z,21.13
2023-03-05T02:38:41.616Z,24.02
2023-03-05T02:41:09.649Z,22.90
2023-03-05T02:43:37.814Z,23.77
2023-03-05T02:46:06.226Z,23.40
2023-03-05T02:48:33.474Z,23.65
2023-03-05T02:51:02.962Z,24.05
2023-03-05T02:53:30.230Z,24.20
2023-03-05T02:55:58.987Z,23.67
2023-03-05T02:58:27.415Z,24.10
2023-03-05T03:00:54.650Z,23.00
2023-03-05T03:03:22.746Z,24.60
2023-03-05T03:05:49.895Z,22.63
2023-03-05T03:08:17.536Z,23.65
2023-03-05T03:10:45.109Z,22.63
2023-03-05T03:13:12.316Z,22.05
2023-03-05T03:15:40.784Z,23.02
2023-03-05T03:18:08.083Z,23.13
2023-03-05T03:20:39.328Z,22.95
2023-03-05T03:23:07.130Z,23.73
2023-03-05T03:25:34.656Z,23.42
2023-03-05T03:28:01.929Z,25.98
2023-03-05T03:30:29.163Z,24.33
2023-03-05T03:32:56.554Z,25.02
2023-03-05T03:35:23.819Z,27.30
2023-03-05T03:37:51.147Z,27.63
2023-03-05T03:40:18.692Z,26.20
2023-03-05T03:42:45.875Z,25.83
2023-03-05T03:45:13.807Z,25.52
2023-03-05T03:47:41.158Z,23.77
2023-03-05T03:50:08.950Z,22.92
2023-03-05T03:52:36.218Z,24.02
2023-03-05T03:55:04.011Z,23.52
2023-03-05T03:57:33.730Z,22.58
2023-03-05T04:00:01.266Z,23.83
2023-03-05T04:02:28.672Z,23.17
2023-03-05T04:04:56.057Z,22.85
2023-03-05T04:07:26.297Z,22.58
2023-03-05T04:09:53.619Z,22.63
2023-03-05T04:12:20.859Z,22.38
2023-03-05T04:14:49.673Z,21.33
2023-03-05T04:17:17.261Z,23.38
2023-03-05T04:19:45.578Z,22.65
2023-03-05T04:22:15.365Z,23.08
2023-03-05T04:24:44.607Z,22.92
2023-03-05T04:27:12.370Z,22.25
2023-03-05T04:29:39.885Z,23.15
2023-03-05T04:32:07.769Z,23.20
2023-03-05T04:34:37.030Z,22.88
2023-03-05T04:37:04.715Z,23.80
2023-03-05T04:39:32.145Z,25.77
2023-03-05T04:41:59.376Z,25.08
2023-03-05T04:44:26.771Z,24.45
2023-03-05T04:46:53.954Z,23.30
2023-03-05T04:49:22.616Z,25.38
2023-03-05T04:51:49.956Z,25.13
2023-03-05T04:54:17.122Z,25.67
2023-03-05T04:56:44.533Z,26.02
2023-03-05T04:59:11.786Z,26.15
2023-03-05T05:01:39.180Z,28.05
2023-03-05T05:04:06.750Z,28.50
2023-03-05T05:06:33.918Z,27.30
2023-03-05T05:09:02.089Z,25.92
2023-03-05T05:11:29.789Z,24.05
2023-03-05T05:13:56.979Z,22.92
2023-03-05T05:16:24.364Z,24.13
2023-03-05T05:18:51.876Z,23.02
2023-03-05T05:21:20.668Z,22.35
2023-03-05T05:23:48.839Z,23.95
2023-03-05T05:26:16.489Z,26.48
2023-03-05T05:28:45.311Z,31.83
2023-03-05T05:31:15.060Z,32.33
2023-03-05T05:33:43.325Z,30.95
2023-03-05T05:36:14.443Z,32.05
2023-03-05T05:38:42.105Z,28.05
2023-03-05T05:41:14.917Z,27.83
2023-03-05T05:43:42.410Z,25.92
2023-03-05T05:46:14.419Z,28.08
2023-03-05T05:48:42.029Z,26.08
2023-03-05T05:51:12.392Z,26.77
2023-03-05T05:53:45.146Z,26.17
2023-03-05T05:56:14.201Z,24.65
2023-03-05T05:58:42.609Z,24.27
2023-03-05T06:01:26.709Z,25.35
2023-03-05T06:03:54.185Z,23.88
2023-03-05T06:06:24.431Z,25.08
2023-03-05T06:08:52.548Z,24.92
2023-03-05T06:11:21.194Z,25.80
2023-03-05T06:13:49.875Z,24.75
2023-03-05T06:16:22.549Z,25.40
2023-03-05T06:18:51.272Z,25.50
2023-03-05T06:21:42.850Z,23.80
2023-03-05T06:24:16.793Z,26.10
2023-03-05T06:27:01.919Z,23.90
2023-03-05T06:29:34.429Z,25.25
2023-03-05T06:32:06.664Z,24.30
2023-03-05T06:37:44.673Z,24.10
2023-03-05T06:40:26.942Z,23.50
2023-03-05T06:42:56.586Z,23.30
2023-03-05T06:45:29.732Z,22.02
2023-03-05T06:48:04.146Z,21.52
2023-03-05T06:50:41.346Z,22.55
2023-03-05T06:53:21.437Z,21.27
2023-03-05T06:56:04.221Z,21.25
2023-03-05T06:58:33.850Z,23.15
2023-03-05T07:01:06.094Z,23.23
2023-03-05T07:03:39.448Z,21.30
2023-03-05T07:06:15.271Z,23.02
2023-03-05T07:09:04.592Z,21.52
2023-03-05T07:11:34.103Z,22.70
2023-03-05T07:14:03.413Z,23.55
2023-03-05T07:16:41.286Z,22.90
2023-03-05T07:19:11.849Z,22.52
2023-03-05T07:21:46.415Z,22.65
2023-03-05T07:24:30.900Z,22.17
2023-03-05T07:27:02.430Z,21.27
2023-03-05T07:29:41.677Z,20.40
2023-03-05T07:32:17.429Z,20.70
2023-03-05T07:34:47.660Z,20.88
2023-03-05T07:37:15.112Z,20.58
2023-03-05T07:39:42.472Z,21.42
2023-03-05T07:42:11.753Z,21.30
2023-03-05T07:44:52.042Z,21.88
2023-03-05T07:47:19.722Z,22.58
2023-03-05T07:49:47.627Z,22.23
2023-03-05T07:52:15.821Z,23.50
2023-03-05T07:54:46.112Z,23.50
2023-03-05T07:57:15.716Z,23.45
2023-03-05T07:59:51.807Z,24.75
2023-03-05T08:02:26.944Z,25.85
2023-03-05T08:05:01.718Z,25.50
2023-03-05T08:07:56.553Z,27.52
2023-03-05T08:10:26.318Z,24.88
2023-03-05T08:13:05.417Z,26.27
2023-03-05T08:15:38.576Z,25.05
2023-03-05T08:18:18.018Z,25.27
2023-03-05T08:20:56.896Z,25.58
2023-03-05T08:23:34.875Z,25.52
2023-03-05T08:26:27.784Z,26.20
2023-03-05T08:29:09.782Z,25.73
2023-03-05T08:32:07.700Z,27.30
2023-03-05T08:34:59.947Z,25.50
2023-03-05T08:37:36.288Z,27.27
2023-03-05T08:40:07.663Z,27.15
2023-03-05T08:42:47.185Z,27.60
2023-03-05T08:45:29.650Z,29.45
2023-03-05T08:48:07.943Z,28.10
2023-03-05T08:50:41.662Z,28.20
2023-03-05T08:55:46.869Z,25.85
2023-03-05T08:58:35.038Z,30.05
2023-03-05T09:04:07.877Z,26.05
2023-03-05T09:06:42.288Z,28.40
2023-03-05T09:09:10.709Z,28.83
2023-03-05T09:11:38.503Z,28.30
2023-03-05T09:14:07.285Z,29.42
2023-03-05T09:16:36.056Z,29.20
2023-03-05T09:19:03.700Z,28.40
2023-03-05T09:22:04.492Z,29.77
2023-03-05T09:25:13.734Z,28.23
2023-03-05T09:27:58.578Z,27.40
2023-03-05T09:30:29.101Z,27.05
2023-03-05T09:33:20.871Z,28.67
2023-03-05T09:35:52.265Z,27.40
2023-03-05T09:38:22.674Z,28.45
2023-03-05T09:41:18.392Z,28.08
2023-03-05T09:44:05.614Z,27.95
2023-03-05T09:47:14.944Z,27.65
2023-03-05T09:49:50.168Z,28.58
2023-03-05T09:52:29.385Z,28.75
2023-03-05T09:55:10.157Z,27.70
2023-03-05T10:08:12.688Z,28.50
2023-03-05T10:11:19.830Z,27.88
2023-03-05T10:13:57.206Z,27.35
2023-03-05T10:17:12.385Z,27.08
2023-03-05T10:20:11.250Z,27.85
2023-03-05T10:22:59.464Z,27.20
2023-03-05T10:25:51.176Z,27.50
2023-03-05T10:28:57.043Z,25.90
2023-03-05T10:31:58.674Z,30.58
2023-03-05T10:34:56.317Z,28.85
2023-03-05T10:37:52.720Z,25.50
2023-03-05T10:40:42.414Z,25.63
2023-03-05T10:43:59.941Z,27.08
2023-03-05T10:46:48.320Z,25.20
2023-03-05T10:49:34.162Z,24.92
2023-03-05T10:52:32.001Z,25.52
2023-03-05T10:59:08.567Z,25.90
2023-03-05T11:01:41.305Z,25.00
2023-03-05T11:05:20.200Z,25.63
2023-03-05T11:07:49.027Z,25.45
2023-03-05T11:10:25.544Z,24.80
2023-03-05T11:12:54.467Z,22.95
2023-03-05T11:15:35.065Z,25.25
2023-03-05T11:18:09.381Z,25.40
2023-03-05T11:20:41.862Z,26.63
2023-03-05T11:23:25.745Z,25.98
2023-03-05T11:26:07.993Z,26.75
2023-03-05T11:28:43.038Z,26.35
2023-03-05T11:34:42.317Z,26.27
2023-03-05T11:37:41.689Z,25.58
2023-03-05T11:41:05.096Z,27.02
2023-03-05T11:46:45.197Z,24.58
2023-03-05T11:50:11.739Z,25.83
2023-03-05T11:52:53.549Z,27.25
2023-03-05T11:55:29.479Z,26.65
2023-03-05T11:58:25.960Z,25.95
2023-03-05T12:00:59.417Z,28.70
2023-03-05T12:03:42.954Z,26.55
2023-03-05T12:06:20.101Z,26.45
2023-03-05T12:08:56.779Z,27.45
2023-03-05T12:11:31.962Z,23.45
2023-03-05T12:14:15.284Z,26.48
2023-03-05T12:16:54.773Z,26.15
2023-03-05T12:19:36.444Z,24.88
2023-03-05T12:22:26.665Z,24.45
2023-03-05T12:25:23.643Z,23.48
2023-03-05T12:27:51.991Z,24.90
2023-03-05T12:30:34.918Z,23.45
2023-03-05T12:33:10.950Z,22.90
2023-03-05T12:35:41.172Z,23.30
2023-03-05T12:38:35.204Z,23.70
2023-03-05T12:41:51.142Z,23.88
2023-03-05T12:44:24.601Z,22.05
2023-03-05T12:47:52.124Z,23.60
2023-03-05T12:50:56.170Z,22.80
2023-03-05T12:53:34.383Z,23.58
2023-03-05T12:56:26.254Z,22.45
2023-03-05T12:59:08.617Z,23.10
2023-03-05T13:02:28.631Z,23.15
2023-03-05T13:05:21.022Z,21.15
2023-03-05T13:10:51.921Z,20.15
2023-03-05T13:13:21.299Z,20.60
2023-03-05T13:15:52.519Z,21.30
2023-03-05T13:18:29.615Z,19.40
2023-03-05T13:21:09.490Z,19.48
2023-03-05T13:23:58.210Z,18.83
2023-03-05T13:26:52.282Z,19.23
2023-03-05T13:29:24.063Z,18.95
2023-03-05T13:31:58.094Z,20.23
2023-03-05T13:34:40.839Z,18.45
2023-03-05T13:37:26.456Z,18.50
2023-03-05T13:42:57.874Z,18.10
2023-03-05T13:48:12.933Z,17.98
2023-03-05T13:50:42.281Z,17.42
2023-03-05T13:53:39.356Z,17.67
2023-03-05T13:56:29.376Z,17.40
2023-03-05T13:59:02.870Z,17.15
2023-03-05T14:01:32.735Z,18.20
2023-03-05T14:04:28.925Z,16.27
2023-03-05T14:07:46.434Z,16.90
2023-03-05T14:10:36.774Z,17.08
2023-03-05T14:13:25.223Z,14.98
2023-03-05T14:16:37.313Z,14.35
2023-03-05T14:19:08.790Z,16.00
2023-03-05T14:25:40.084Z,15.68
2023-03-05T14:28:53.385Z,15.35
2023-03-05T14:32:14.814Z,15.80
2023-03-05T14:34:58.839Z,14.45
2023-03-05T14:37:37.015Z,15.25
2023-03-05T14:40:14.678Z,15.30
2023-03-05T14:42:58.555Z,14.80
2023-03-05T14:45:35.012Z,15.35
2023-03-05T14:48:07.735Z,15.15
2023-03-05T14:51:02.448Z,15.50
2023-03-05T14:53:41.427Z,15.35
2023-03-05T14:56:22.498Z,15.18
2023-03-05T14:58:54.177Z,15.52
2023-03-05T15:01:38.272Z,16.23
2023-03-05T15:04:13.058Z,15.80
2023-03-05T15:06:48.562Z,16.52
2023-03-05T15:09:22.123Z,16.45
2023-03-05T15:12:05.094Z,15.73
2023-03-05T15:14:57.552Z,16.52
2023-03-05T15:18:13.904Z,16.67
2023-03-05T15:20:43.998Z,16.80
2023-03-05T15:23:18.710Z,17.25
2023-03-05T15:25:53.448Z,17.52
2023-03-05T15:28:41.240Z,18.75
2023-03-05T15:31:13.649Z,18.73
2023-03-05T15:33:43.057Z,19.05
2023-03-05T15:36:11.242Z,19.10
2023-03-05T15:38:50.653Z,17.85
2023-03-05T15:41:30.051Z,18.42
2023-03-05T15:44:41.821Z,20.13
2023-03-05T15:47:14.221Z,17.30
2023-03-05T15:50:25.744Z,18.33
2023-03-05T15:52:53.592Z,18.85
2023-03-05T15:55:37.057Z,18.88
2023-03-05T15:58:29.307Z,18.77
2023-03-05T16:01:21.714Z,19.38
2023-03-05T16:04:05.113Z,18.02
2023-03-05T16:06:45.960Z,18.85
2023-03-05T16:09:27.853Z,19.63
2023-03-05T16:11:57.991Z,19.27
2023-03-05T16:14:31.734Z,20.27
2023-03-05T16:17:06.052Z,18.60
2023-03-05T16:23:45.735Z,16.90
2023-03-05T16:26:48.937Z,15.82
2023-03-05T16:29:42.044Z,16.35
2023-03-05T16:32:21.924Z,15.38
2023-03-05T16:35:04.619Z,16.38
2023-03-05T16:38:07.025Z,15.02
2023-03-05T16:41:06.132Z,15.77
2023-03-05T16:43:38.666Z,14.82
2023-03-05T16:46:33.947Z,15.85
2023-03-05T16:49:11.521Z,16.17
2023-03-05T16:51:50.399Z,15.65
2023-03-05T16:54:22.737Z,15.50
2023-03-05T16:56:54.514Z,13.75
2023-03-05T16:59:55.177Z,14.68
2023-03-05T17:02:33.957Z,14.10
2023-03-05T17:05:08.651Z,13.50
2023-03-05T17:07:49.264Z,13.30
2023-03-05T17:10:18.897Z,12.85
2023-03-05T17:12:48.127Z,13.00
2023-03-05T17:15:16.550Z,12.48
2023-03-05T17:17:58.109Z,12.35
2023-03-05T17:20:41.210Z,11.98
2023-03-05T17:23:51.499Z,11.27
2023-03-05T17:26:39.008Z,11.98
2023-03-05T17:29:08.403Z,10.80
2023-03-05T17:31:36.396Z,11.10
2023-03-05T17:34:06.339Z,10.85
2023-03-05T17:36:36.031Z,10.07
2023-03-05T17:39:14.756Z,9.98
2023-03-05T17:41:53.240Z,10.30
2023-03-05T17:44:21.877Z,9.77
2023-03-05T17:46:49.994Z,10.43
2023-03-05T17:49:47.205Z,9.07
2023-03-05T17:52:54.761Z,10.32
2023-03-05T17:55:33.131Z,10.10
2023-03-05T17:58:02.227Z,10.55
2023-03-05T18:00:40.470Z,9.20
2023-03-05T18:03:14.021Z,11.18
2023-03-05T18:06:11.412Z,10.10
2023-03-05T18:08:47.787Z,9.88
2023-03-05T18:11:22.261Z,9.50
2023-03-05T18:13:51.861Z,9.30
2023-03-05T18:16:24.360Z,10.52
2023-03-05T18:18:53.042Z,11.02
2023-03-05T18:21:23.216Z,11.20
2023-03-05T18:23:56.418Z,9.50
2023-03-05T18:31:56.735Z,11.65
2023-03-05T18:34:26.296Z,10.35
2023-03-05T18:36:54.358Z,9.48
2023-03-05T18:39:33.933Z,8.88
2023-03-05T18:42:14.051Z,8.93
2023-03-05T18:44:50.100Z,9.40
2023-03-05T18:47:17.577Z,11.18
2023-03-05T18:50:00.148Z,12.68
2023-03-05T18:52:31.317Z,11.73
2023-03-05T18:55:21.732Z,11.63
2023-03-05T18:57:51.335Z,11.68
2023-03-05T19:00:35.077Z,11.77
2023-03-05T19:03:09.637Z,12.85
2023-03-05T19:06:00.214Z,12.80
2023-03-05T19:08:31.685Z,12.02
2023-03-05T19:11:00.420Z,12.77
2023-03-05T19:13:46.007Z,12.77
2023-03-05T19:16:19.061Z,11.23
2023-03-05T19:19:15.831Z,10.88
2023-03-05T19:21:46.408Z,11.68
2023-03-05T19:24:26.314Z,12.68
2023-03-05T19:27:02.548Z,11.43
2023-03-05T19:29:33.471Z,10.52
2023-03-05T19:32:06.057Z,14.02
2023-03-05T19:34:33.671Z,17.23
2023-03-05T19:37:02.294Z,19.95
2023-03-05T19:39:29.896Z,19.67
2023-03-05T19:41:57.206Z,22.13
2023-03-05T19:44:25.290Z,20.27
2023-03-05T19:46:53.122Z,21.45
2023-03-05T19:49:26.011Z,21.13
2023-03-05T19:51:54.652Z,21.67
2023-03-05T19:54:23.226Z,26.33
2023-03-05T19:56:54.902Z,31.00
2023-03-05T19:59:23.486Z,33.55
2023-03-05T20:01:50.868Z,31.08
2023-03-05T20:04:23.878Z,30.73
2023-03-05T20:07:17.961Z,22.15
2023-03-05T20:09:53.447Z,14.85
2023-03-05T20:12:23.833Z,13.70
2023-03-05T20:14:51.224Z,14.65
2023-03-05T20:17:20.319Z,15.00
2023-03-05T20:19:49.427Z,18.90
2023-03-05T20:22:18.682Z,22.38
2023-03-05T20:24:48.289Z,21.23
2023-03-05T20:27:16.314Z,20.08
2023-03-05T20:29:43.719Z,19.25
2023-03-05T20:32:11.227Z,19.55
2023-03-05T20:34:38.775Z,20.08
2023-03-05T20:37:06.520Z,20.20
2023-03-05T20:39:34.303Z,21.67
2023-03-05T20:42:01.542Z,19.63
2023-03-05T20:44:29.000Z,21.75
2023-03-05T20:47:10.250Z,23.80
2023-03-05T20:49:37.502Z,27.67
2023-03-05T20:52:04.857Z,27.77
2023-03-05T20:54:32.055Z,20.80
2023-03-05T20:56:59.488Z,18.17
2023-03-05T20:59:27.345Z,18.30
2023-03-05T21:01:54.894Z,19.05
2023-03-05T21:04:22.239Z,19.27
2023-03-05T21:06:54.128Z,19.80
2023-03-05T21:09:21.475Z,19.67
2023-03-05T21:11:48.826Z,20.48
2023-03-05T21:14:15.989Z,20.80
2023-03-05T21:16:44.311Z,19.90
2023-03-05T21:19:11.621Z,19.17
2023-03-05T21:21:44.944Z,18.67
2023-03-05T21:26:40.042Z,16.30
2023-03-05T21:29:11.358Z,16.23
2023-03-05T21:31:40.224Z,14.82
2023-03-05T21:34:08.960Z,15.80
2023-03-05T21:36:36.258Z,15.23
2023-03-05T21:39:03.596Z,14.32
2023-03-05T21:41:33.315Z,15.05
2023-03-05T21:44:04.864Z,15.35
2023-03-05T21:46:32.343Z,15.60
2023-03-05T21:48:59.898Z,14.38
2023-03-05T21:51:37.237Z,14.13
2023-03-05T21:54:04.973Z,13.77
2023-03-05T21:56:33.354Z,14.75
2023-03-05T21:59:00.836Z,15.02
2023-03-05T22:01:33.072Z,14.48
2023-03-05T22:04:00.996Z,14.63
2023-03-05T22:06:28.317Z,14.27
2023-03-05T22:08:55.658Z,15.23
2023-03-05T22:11:23.122Z,14.93
2023-03-05T22:13:50.476Z,16.05
2023-03-05T22:16:23.474Z,15.60
2023-03-05T22:18:51.738Z,15.18
2023-03-05T22:21:22.436Z,18.02
2023-03-05T22:23:51.613Z,16.42
2023-03-05T22:26:19.443Z,16.48
2023-03-05T22:28:46.829Z,16.58
2023-03-05T22:31:21.562Z,16.15
2023-03-05T22:33:49.312Z,16.15
2023-03-05T22:36:16.538Z,16.75
2023-03-05T22:38:44.008Z,17.42
2023-03-05T22:41:15.403Z,15.98
2023-03-05T22:43:47.176Z,14.65
2023-03-05T22:46:18.410Z,13.15
2023-03-05T22:48:47.491Z,12.48
2023-03-05T22:51:16.160Z,10.32
2023-03-05T22:53:44.247Z,10.73
2023-03-05T22:56:14.321Z,11.35
2023-03-05T22:58:42.224Z,12.30
2023-03-05T23:01:21.824Z,12.50
2023-03-05T23:03:55.229Z,12.18
2023-03-05T23:06:23.744Z,11.70
2023-03-05T23:08:51.053Z,11.75
2023-03-05T23:11:18.241Z,10.40
2023-03-05T23:13:45.481Z,9.50
2023-03-05T23:16:12.685Z,9.95
2023-03-05T23:18:39.986Z,10.23
2023-03-05T23:21:07.239Z,12.98
2023-03-05T23:23:35.734Z,18.83
2023-03-05T23:26:03.197Z,18.35
2023-03-05T23:28:30.688Z,17.50
2023-03-05T23:30:58.642Z,16.40
2023-03-05T23:33:25.902Z,13.88
2023-03-05T23:35:59.174Z,11.55
2023-03-05T23:38:28.537Z,10.18
2023-03-05T23:41:00.709Z,10.00
2023-03-05T23:43:28.397Z,9.93
2023-03-05T23:45:56.463Z,9.07
2023-03-05T23:48:25.830Z,9.35
2023-03-05T23:50:53.620Z,9.30
2023-03-05T23:53:27.435Z,9.68
2023-03-05T23:55:56.140Z,10.27
2023-03-05T23:58:23.857Z,11.07
